createdAt,value
2018-05-26T00:00:41.762Z,99.90
2018-05-26T00:03:09.279Z,99.90
2018-05-26T00:05:36.756Z,99.90
2018-05-26T00:08:04.264Z,99.90
2018-05-26T00:10:31.758Z,99.90
2018-05-26T00:12:59.309Z,99.90
2018-05-26T00:15:26.791Z,99.90
2018-05-26T00:17:54.356Z,99.90
2018-05-26T00:20:21.872Z,99.90
2018-05-26T00:22:55.104Z,99.90
2018-05-26T00:25:22.597Z,99.90
2018-05-26T00:27:50.846Z,99.90
2018-05-26T00:30:18.368Z,99.90
2018-05-26T00:32:45.839Z,99.90
2018-05-26T00:35:13.327Z,99.90
2018-05-26T00:37:40.828Z,99.90
2018-05-26T00:40:09.243Z,99.90
2018-05-26T00:42:36.741Z,99.90
2018-05-26T00:45:04.989Z,99.90
2018-05-26T00:47:32.483Z,99.90
2018-05-26T00:49:59.953Z,99.90
2018-05-26T00:52:27.432Z,99.90
2018-05-26T00:54:54.929Z,99.90
2018-05-26T00:57:22.410Z,99.90
2018-05-26T00:59:50.691Z,99.90
2018-05-26T01:02:18.963Z,99.90
2018-05-26T01:04:48.028Z,99.90
2018-05-26T01:07:15.508Z,99.90
2018-05-26T01:09:43.803Z,99.90
2018-05-26T01:12:11.351Z,99.90
2018-05-26T01:14:39.613Z,99.90
2018-05-26T01:17:07.869Z,99.90
2018-05-26T01:19:35.369Z,99.90
2018-05-26T01:22:02.857Z,99.90
2018-05-26T01:24:30.373Z,99.90
2018-05-26T01:26:58.618Z,99.90
2018-05-26T01:29:26.136Z,99.90
2018-05-26T01:31:53.621Z,99.90
2018-05-26T01:34:21.122Z,99.90
2018-05-26T01:36:49.379Z,99.90
2018-05-26T01:39:16.966Z,99.90
2018-05-26T01:41:45.206Z,99.90
2018-05-26T01:44:12.707Z,99.90
2018-05-26T01:46:40.936Z,99.90
2018-05-26T01:49:08.441Z,99.90
2018-05-26T01:51:35.936Z,99.90
2018-05-26T01:54:04.187Z,99.90
2018-05-26T01:56:31.673Z,99.90
2018-05-26T01:58:59.189Z,99.90
2018-05-26T02:01:27.430Z,99.90
2018-05-26T02:03:55.712Z,99.90
2018-05-26T02:06:23.188Z,99.90
2018-05-26T02:08:51.444Z,99.90
2018-05-26T02:11:18.941Z,99.90
2018-05-26T02:13:46.444Z,99.90
2018-05-26T02:16:13.943Z,99.90
2018-05-26T02:18:41.447Z,99.90
2018-05-26T02:21:08.935Z,99.90
2018-05-26T02:23:36.457Z,99.90
2018-05-26T02:26:03.939Z,99.90
2018-05-26T02:28:31.454Z,99.90
2018-05-26T02:30:58.925Z,99.90
2018-05-26T02:33:27.199Z,99.90
2018-05-26T02:35:54.722Z,99.90
2018-05-26T02:38:22.981Z,99.90
2018-05-26T02:40:50.487Z,99.90
2018-05-26T02:43:17.973Z,99.90
2018-05-26T02:45:45.472Z,99.90
2018-05-26T02:48:12.946Z,99.90
2018-05-26T02:50:40.440Z,99.90
2018-05-26T02:53:07.932Z,99.90
2018-05-26T02:55:35.434Z,99.90
2018-05-26T02:58:02.933Z,99.90
2018-05-26T03:00:30.426Z,99.90
2018-05-26T03:02:57.915Z,99.90
2018-05-26T03:05:31.019Z,99.90
2018-05-26T03:08:04.325Z,99.90
2018-05-26T03:10:37.654Z,99.90
2018-05-26T03:13:11.519Z,99.90
2018-05-26T03:15:39.013Z,99.90
2018-05-26T03:18:07.257Z,99.90
2018-05-26T03:20:34.752Z,99.90
2018-05-26T03:23:03.078Z,99.90
2018-05-26T03:25:30.553Z,99.90
2018-05-26T03:27:58.025Z,99.90
2018-05-26T03:30:25.526Z,99.90
2018-05-26T03:32:53.074Z,99.90
2018-05-26T03:35:20.548Z,99.90
2018-05-26T03:37:48.037Z,99.90
2018-05-26T03:40:15.524Z,99.90
2018-05-26T03:42:43.022Z,99.90
2018-05-26T03:45:10.514Z,99.90
2018-05-26T03:47:37.993Z,99.90
2018-05-26T03:50:05.485Z,99.90
2018-05-26T03:52:32.982Z,99.90
2018-05-26T03:58:21.915Z,99.90
2018-05-26T04:00:49.422Z,99.90
2018-05-26T04:03:16.895Z,99.90
2018-05-26T04:05:44.433Z,99.90
2018-05-26T04:08:11.876Z,99.90
2018-05-26T04:10:39.365Z,99.90
2018-05-26T04:13:06.846Z,99.90
2018-05-26T04:15:34.344Z,99.90
2018-05-26T04:18:01.817Z,99.90
2018-05-26T04:20:29.322Z,99.90
2018-05-26T04:22:57.569Z,99.90
2018-05-26T04:25:25.061Z,99.90
2018-05-26T04:27:53.338Z,99.90
2018-05-26T04:30:21.589Z,99.90
2018-05-26T04:32:49.076Z,99.90
2018-05-26T04:35:16.588Z,99.90
2018-05-26T04:37:44.070Z,99.90
2018-05-26T04:40:11.559Z,99.90
2018-05-26T04:42:39.786Z,99.90
2018-05-26T04:45:07.268Z,99.90
2018-05-26T04:47:34.793Z,99.90
2018-05-26T04:50:02.264Z,99.90
2018-05-26T04:52:29.774Z,99.90
2018-05-26T04:54:57.258Z,99.90
2018-05-26T04:57:24.754Z,99.90
2018-05-26T04:59:52.291Z,99.90
2018-05-26T05:02:19.788Z,99.90
2018-05-26T05:04:48.028Z,99.90
2018-05-26T05:07:15.521Z,99.90
2018-05-26T05:09:43.783Z,99.90
2018-05-26T05:12:11.267Z,99.90
2018-05-26T05:14:38.757Z,99.90
2018-05-26T05:17:06.263Z,99.90
2018-05-26T05:19:34.498Z,99.90
2018-05-26T05:22:02.039Z,99.90
2018-05-26T05:24:29.525Z,99.90
2018-05-26T05:26:57.013Z,99.90
2018-05-26T05:29:25.263Z,99.90
2018-05-26T05:31:52.757Z,99.90
2018-05-26T05:34:21.010Z,99.90
2018-05-26T05:36:48.511Z,99.90
2018-05-26T05:39:15.991Z,99.90
2018-05-26T05:41:43.481Z,99.90
2018-05-26T05:44:10.959Z,99.90
2018-05-26T05:46:39.223Z,99.90
2018-05-26T05:49:06.682Z,99.90
2018-05-26T05:51:35.679Z,99.90
2018-05-26T05:54:03.918Z,99.90
2018-05-26T05:56:31.490Z,99.90
2018-05-26T05:58:59.007Z,99.90
2018-05-26T06:01:26.512Z,99.90
2018-05-26T06:03:53.993Z,99.90
2018-05-26T06:06:22.247Z,99.90
2018-05-26T06:08:49.729Z,99.90
2018-05-26T06:11:18.025Z,99.90
2018-05-26T06:13:45.497Z,99.90
2018-05-26T06:16:13.294Z,99.90
2018-05-26T06:18:40.781Z,99.90
2018-05-26T06:21:08.269Z,99.90
2018-05-26T06:23:35.775Z,99.90
2018-05-26T06:26:03.270Z,99.90
2018-05-26T06:28:30.766Z,99.90
2018-05-26T06:30:58.280Z,99.90
2018-05-26T06:33:26.545Z,99.90
2018-05-26T06:35:54.088Z,99.90
2018-05-26T06:38:21.755Z,99.90
2018-05-26T06:40:49.231Z,99.90
2018-05-26T06:43:17.496Z,99.90
2018-05-26T06:45:44.977Z,99.90
2018-05-26T06:48:13.229Z,99.90
2018-05-26T06:50:40.850Z,99.90
2018-05-26T06:53:08.364Z,99.90
2018-05-26T06:55:36.613Z,99.90
2018-05-26T06:58:04.144Z,99.90
2018-05-26T07:00:31.646Z,99.90
2018-05-26T07:02:59.977Z,99.90
2018-05-26T07:05:27.440Z,99.90
2018-05-26T07:07:54.976Z,99.90
2018-05-26T07:10:22.464Z,99.90
2018-05-26T07:12:49.986Z,98.20
2018-05-26T07:15:17.564Z,96.40
2018-05-26T07:17:45.062Z,93.60
2018-05-26T07:20:12.592Z,90.30
2018-05-26T07:22:40.108Z,85.80
2018-05-26T07:25:07.608Z,81.70
2018-05-26T07:27:35.886Z,75.30
2018-05-26T07:30:03.364Z,74.50
2018-05-26T07:32:30.882Z,70.00
2018-05-26T07:34:58.361Z,67.50
2018-05-26T07:37:25.835Z,66.40
2018-05-26T07:39:53.308Z,65.70
2018-05-26T07:42:20.812Z,64.30
2018-05-26T07:44:48.308Z,62.50
2018-05-26T07:47:15.855Z,61.40
2018-05-26T07:49:43.289Z,60.90
2018-05-26T07:52:10.783Z,60.00
2018-05-26T07:54:38.291Z,60.10
2018-05-26T07:57:06.555Z,59.00
2018-05-26T07:59:34.089Z,59.00
2018-05-26T08:02:01.599Z,58.60
2018-05-26T08:04:29.081Z,58.40
2018-05-26T08:06:56.571Z,56.40
2018-05-26T08:09:24.823Z,53.30
2018-05-26T08:11:52.326Z,53.30
2018-05-26T08:14:19.827Z,51.70
2018-05-26T08:16:47.321Z,51.40
2018-05-26T08:19:15.609Z,51.20
2018-05-26T08:21:43.857Z,51.10
2018-05-26T08:24:11.347Z,51.10
2018-05-26T08:26:39.586Z,51.00
2018-05-26T08:29:07.077Z,51.00
2018-05-26T08:31:35.321Z,48.90
2018-05-26T08:34:02.849Z,48.80
2018-05-26T08:36:30.341Z,48.20
2018-05-26T08:38:57.849Z,47.80
2018-05-26T08:41:25.317Z,47.70
2018-05-26T08:43:52.802Z,46.70
2018-05-26T08:46:20.305Z,45.50
2018-05-26T08:48:48.667Z,43.40
2018-05-26T08:51:16.150Z,43.30
2018-05-26T08:53:43.664Z,42.80
2018-05-26T08:56:11.125Z,43.60
2018-05-26T08:58:38.630Z,43.20
2018-05-26T09:01:06.113Z,42.50
2018-05-26T09:03:33.624Z,42.30
2018-05-26T09:06:01.160Z,41.10
2018-05-26T09:08:28.637Z,42.50
2018-05-26T09:10:56.891Z,41.80
2018-05-26T09:13:24.390Z,41.90
2018-05-26T09:15:51.886Z,41.80
2018-05-26T09:18:19.395Z,40.50
2018-05-26T09:20:46.874Z,39.70
2018-05-26T09:23:14.396Z,40.60
2018-05-26T09:25:42.225Z,40.80
2018-05-26T09:28:09.732Z,41.60
2018-05-26T09:30:37.982Z,39.00
2018-05-26T09:33:05.466Z,38.90
2018-05-26T09:35:33.733Z,38.50
2018-05-26T09:38:01.227Z,38.50
2018-05-26T09:40:28.713Z,38.70
2018-05-26T09:42:56.222Z,37.10
2018-05-26T09:45:24.468Z,35.10
2018-05-26T09:47:51.955Z,35.00
2018-05-26T09:50:20.254Z,35.00
2018-05-26T09:52:47.735Z,34.90
2018-05-26T09:55:15.215Z,35.00
2018-05-26T09:57:42.690Z,35.10
2018-05-26T10:00:10.186Z,34.60
2018-05-26T10:02:37.680Z,34.70
2018-05-26T10:05:05.192Z,33.30
2018-05-26T10:07:32.674Z,33.50
2018-05-26T10:10:00.151Z,33.60
2018-05-26T10:12:27.628Z,32.80
2018-05-26T10:14:55.171Z,32.10
2018-05-26T10:17:22.810Z,31.80
2018-05-26T10:19:50.318Z,31.90
2018-05-26T10:22:17.799Z,30.90
2018-05-26T10:24:45.306Z,30.60
2018-05-26T10:27:12.795Z,30.20
2018-05-26T10:29:40.285Z,30.20
2018-05-26T10:32:07.796Z,29.80
2018-05-26T10:34:35.287Z,30.00
2018-05-26T10:37:03.545Z,28.70
2018-05-26T10:39:31.816Z,28.40
2018-05-26T10:41:59.301Z,28.40
2018-05-26T10:44:26.799Z,28.00
2018-05-26T10:46:54.337Z,27.60
2018-05-26T10:49:21.838Z,25.80
2018-05-26T10:51:49.333Z,27.80
2018-05-26T10:54:16.845Z,29.20
2018-05-26T10:56:44.315Z,29.00
2018-05-26T10:59:11.806Z,27.90
2018-05-26T11:01:40.076Z,28.00
2018-05-26T11:04:08.375Z,29.30
2018-05-26T11:06:47.816Z,29.30
2018-05-26T11:09:15.313Z,29.00
2018-05-26T11:11:42.819Z,29.30
2018-05-26T11:14:10.319Z,28.60
2018-05-26T11:16:37.816Z,27.80
2018-05-26T11:19:06.081Z,25.80
2018-05-26T11:21:33.577Z,25.80
2018-05-26T11:24:01.319Z,25.80
2018-05-26T11:26:28.588Z,24.70
2018-05-26T11:28:56.088Z,26.10
2018-05-26T11:31:23.603Z,27.10
2018-05-26T11:33:51.078Z,26.80
2018-05-26T11:36:18.595Z,26.20
2018-05-26T11:38:46.806Z,25.90
2018-05-26T11:41:14.312Z,26.60
2018-05-26T11:43:42.439Z,26.90
2018-05-26T11:46:09.908Z,26.50
2018-05-26T11:48:37.370Z,26.20
2018-05-26T11:51:04.877Z,24.80
2018-05-26T11:53:32.366Z,24.60
2018-05-26T11:55:59.948Z,25.10
2018-05-26T11:58:27.430Z,24.80
2018-05-26T12:00:54.916Z,24.60
2018-05-26T12:03:22.410Z,24.00
2018-05-26T12:05:49.910Z,24.50
2018-05-26T12:08:17.471Z,25.00
2018-05-26T12:10:44.994Z,25.50
2018-05-26T12:13:12.477Z,24.90
2018-05-26T12:15:39.983Z,25.90
2018-05-26T12:18:07.483Z,26.30
2018-05-26T12:20:34.975Z,25.20
2018-05-26T12:23:03.233Z,24.70
2018-05-26T12:25:30.719Z,24.60
2018-05-26T12:27:58.977Z,25.90
2018-05-26T12:30:26.465Z,25.90
2018-05-26T12:32:53.939Z,25.80
2018-05-26T12:35:21.439Z,26.00
2018-05-26T12:37:48.936Z,25.90
2018-05-26T12:40:16.440Z,26.30
2018-05-26T12:42:43.921Z,26.90
2018-05-26T12:45:11.418Z,26.80
2018-05-26T12:47:38.919Z,27.10
2018-05-26T12:50:06.437Z,26.70
2018-05-26T12:52:33.939Z,26.20
2018-05-26T12:55:01.435Z,26.00
2018-05-26T12:57:28.911Z,26.30
2018-05-26T12:59:56.382Z,26.70
2018-05-26T13:02:23.891Z,26.90
2018-05-26T13:04:51.410Z,26.20
2018-05-26T13:07:18.922Z,25.90
2018-05-26T13:09:47.174Z,25.80
2018-05-26T13:12:14.674Z,25.80
2018-05-26T13:14:42.143Z,25.60
2018-05-26T13:17:09.647Z,25.20
2018-05-26T13:19:37.949Z,24.40
2018-05-26T13:22:05.657Z,23.70
2018-05-26T13:24:33.194Z,23.50
2018-05-26T13:27:00.695Z,24.70
2018-05-26T13:29:28.190Z,25.80
2018-05-26T13:31:56.474Z,25.40
2018-05-26T13:34:23.968Z,25.30
2018-05-26T13:36:51.482Z,25.50
2018-05-26T13:39:18.962Z,25.30
2018-05-26T13:41:46.432Z,25.40
2018-05-26T13:44:13.970Z,25.60
2018-05-26T13:46:41.444Z,25.60
2018-05-26T13:49:08.960Z,26.50
2018-05-26T13:51:36.435Z,27.00
2018-05-26T13:54:04.736Z,29.10
2018-05-26T13:56:32.207Z,29.00
2018-05-26T13:58:59.711Z,29.80
2018-05-26T14:01:27.955Z,29.90
2018-05-26T14:03:55.459Z,29.90
2018-05-26T14:06:23.697Z,30.50
2018-05-26T14:08:51.199Z,30.50
2018-05-26T14:11:18.682Z,30.40
2018-05-26T14:13:46.184Z,30.50
2018-05-26T14:16:13.667Z,30.70
2018-05-26T14:18:41.975Z,32.70
2018-05-26T14:21:09.463Z,32.70
2018-05-26T14:23:36.929Z,33.00
2018-05-26T14:26:04.429Z,33.90
2018-05-26T14:28:31.918Z,33.50
2018-05-26T14:30:59.440Z,33.20
2018-05-26T14:33:26.914Z,33.90
2018-05-26T14:35:54.440Z,35.20
2018-05-26T14:38:22.687Z,35.60
2018-05-26T14:40:50.200Z,35.50
2018-05-26T14:43:17.691Z,36.20
2018-05-26T14:45:45.188Z,36.10
2018-05-26T14:48:13.440Z,36.50
2018-05-26T14:50:40.946Z,36.50
2018-05-26T14:53:08.412Z,37.20
2018-05-26T14:55:35.913Z,37.20
2018-05-26T14:58:03.421Z,37.40
2018-05-26T15:00:30.926Z,36.90
2018-05-26T15:02:58.430Z,37.20
2018-05-26T15:05:25.962Z,37.40
2018-05-26T15:07:53.449Z,37.90
2018-05-26T15:10:20.962Z,38.90
2018-05-26T15:12:48.519Z,39.10
2018-05-26T15:15:16.715Z,40.50
2018-05-26T15:17:44.209Z,40.50
2018-05-26T15:20:11.689Z,40.60
2018-05-26T15:22:39.307Z,39.90
2018-05-26T15:25:07.570Z,39.90
2018-05-26T15:27:35.845Z,40.60
2018-05-26T15:30:04.098Z,40.20
2018-05-26T15:32:31.593Z,40.30
2018-05-26T15:34:59.069Z,40.30
2018-05-26T15:37:26.571Z,40.40
2018-05-26T15:39:54.066Z,41.40
2018-05-26T15:42:22.329Z,43.70
2018-05-26T15:44:49.799Z,43.70
2018-05-26T15:47:17.313Z,44.30
2018-05-26T15:49:44.785Z,42.90
2018-05-26T15:52:12.353Z,44.00
2018-05-26T15:54:39.829Z,43.80
2018-05-26T15:57:08.065Z,43.40
2018-05-26T15:59:35.566Z,43.40
2018-05-26T16:02:03.803Z,42.50
2018-05-26T16:04:31.309Z,42.50
2018-05-26T16:06:58.819Z,42.80
2018-05-26T16:09:26.320Z,42.90
2018-05-26T16:11:54.683Z,42.30
2018-05-26T16:14:22.189Z,42.20
2018-05-26T16:16:49.660Z,42.40
2018-05-26T16:19:17.186Z,42.20
2018-05-26T16:21:44.740Z,41.80
2018-05-26T16:24:12.315Z,41.70
2018-05-26T16:26:39.788Z,42.00
2018-05-26T16:29:07.305Z,42.80
2018-05-26T16:31:36.536Z,42.10
2018-05-26T16:34:04.041Z,42.10
2018-05-26T16:36:31.513Z,43.10
2018-05-26T16:38:59.776Z,41.70
2018-05-26T16:41:27.252Z,41.70
2018-05-26T16:43:55.596Z,41.30
2018-05-26T16:46:23.088Z,41.20
2018-05-26T16:48:50.580Z,41.60
2018-05-26T16:51:18.107Z,41.80
2018-05-26T16:53:46.455Z,42.50
2018-05-26T16:56:13.982Z,42.40
2018-05-26T16:58:46.315Z,41.40
2018-05-26T17:01:13.893Z,40.80
2018-05-26T17:03:41.401Z,41.00
2018-05-26T17:06:08.925Z,42.20
2018-05-26T17:08:36.408Z,43.10
2018-05-26T17:11:03.919Z,42.80
2018-05-26T17:13:31.396Z,41.60
2018-05-26T17:15:58.927Z,42.50
2018-05-26T17:18:26.404Z,43.00
2018-05-26T17:20:53.978Z,43.60
2018-05-26T17:23:21.459Z,44.10
2018-05-26T17:25:48.985Z,45.20
2018-05-26T17:28:16.583Z,45.80
2018-05-26T17:30:44.116Z,45.90
2018-05-26T17:33:11.615Z,45.50
2018-05-26T17:35:39.170Z,45.60
2018-05-26T17:38:06.650Z,46.20
2018-05-26T17:40:34.137Z,46.10
2018-05-26T17:43:01.684Z,45.90
2018-05-26T17:45:29.185Z,46.90
2018-05-26T17:47:56.689Z,48.40
2018-05-26T17:50:24.947Z,50.50
2018-05-26T17:52:52.469Z,50.50
2018-05-26T17:55:19.937Z,51.60
2018-05-26T17:57:49.011Z,52.40
2018-05-26T18:00:17.419Z,52.80
2018-05-26T18:02:44.949Z,53.00
2018-05-26T18:05:12.429Z,54.20
2018-05-26T18:07:39.966Z,54.30
2018-05-26T18:10:07.457Z,54.50
2018-05-26T18:12:34.997Z,55.30
2018-05-26T18:15:02.562Z,55.60
2018-05-26T18:17:30.089Z,55.90
2018-05-26T18:19:57.757Z,55.90
2018-05-26T18:22:25.280Z,56.00
2018-05-26T18:24:52.782Z,56.30
2018-05-26T18:27:20.257Z,56.40
2018-05-26T18:29:47.797Z,56.30
2018-05-26T18:32:15.273Z,56.70
2018-05-26T18:34:42.820Z,57.00
2018-05-26T18:37:10.391Z,57.20
2018-05-26T18:39:37.905Z,58.40
2018-05-26T18:42:05.387Z,58.90
2018-05-26T18:44:32.893Z,58.80
2018-05-26T18:47:00.372Z,59.00
2018-05-26T18:49:27.873Z,60.00
2018-05-26T18:51:55.341Z,61.10
2018-05-26T18:54:22.854Z,62.10
2018-05-26T18:56:50.376Z,64.00
2018-05-26T18:59:17.871Z,65.80
2018-05-26T19:01:45.355Z,67.80
2018-05-26T19:04:12.868Z,70.70
2018-05-26T19:06:40.374Z,73.60
2018-05-26T19:09:07.872Z,76.70
2018-05-26T19:11:35.378Z,79.70
2018-05-26T19:14:02.892Z,82.80
2018-05-26T19:16:30.428Z,85.50
2018-05-26T19:18:57.922Z,88.60
2018-05-26T19:21:26.065Z,90.30
2018-05-26T19:23:53.562Z,91.10
2018-05-26T19:26:21.838Z,92.30
2018-05-26T19:28:50.079Z,92.90
2018-05-26T19:31:17.582Z,92.90
2018-05-26T19:33:45.064Z,93.30
2018-05-26T19:36:12.566Z,93.50
2018-05-26T19:38:40.064Z,93.60
2018-05-26T19:41:07.570Z,93.70
2018-05-26T19:43:35.051Z,93.90
2018-05-26T19:46:03.228Z,94.10
2018-05-26T19:48:31.499Z,93.90
2018-05-26T19:50:59.777Z,94.10
2018-05-26T19:53:28.021Z,94.00
2018-05-26T19:55:55.505Z,93.90
2018-05-26T19:58:23.060Z,94.00
2018-05-26T20:00:50.515Z,94.10
2018-05-26T20:03:18.004Z,94.00
2018-05-26T20:05:45.469Z,94.10
2018-05-26T20:08:12.970Z,94.20
2018-05-26T20:10:40.440Z,94.30
2018-05-26T20:13:07.933Z,94.30
2018-05-26T20:15:35.412Z,94.50
2018-05-26T20:18:02.925Z,94.40
2018-05-26T20:20:30.408Z,94.20
2018-05-26T20:22:57.965Z,94.30
2018-05-26T20:25:25.416Z,94.20
2018-05-26T20:27:52.963Z,94.20
2018-05-26T20:30:21.317Z,94.30
2018-05-26T20:32:48.820Z,94.20
2018-05-26T20:35:16.315Z,94.40
2018-05-26T20:37:43.848Z,94.30
2018-05-26T20:40:11.590Z,94.20
2018-05-26T20:42:39.192Z,94.10
2018-05-26T20:45:07.209Z,94.10
2018-05-26T20:47:36.712Z,93.80
2018-05-26T20:50:04.300Z,93.70
2018-05-26T20:52:32.539Z,93.50
2018-05-26T20:55:00.074Z,93.50
2018-05-26T20:57:27.554Z,93.70
2018-05-26T20:59:55.059Z,93.60
2018-05-26T21:02:22.567Z,93.70
2018-05-26T21:04:50.084Z,93.90
2018-05-26T21:07:17.559Z,94.00
2018-05-26T21:09:45.097Z,93.70
2018-05-26T21:12:12.612Z,93.90
2018-05-26T21:14:40.129Z,93.90
2018-05-26T21:17:07.618Z,93.90
2018-05-26T21:19:35.146Z,94.20
2018-05-26T21:22:02.619Z,94.40
2018-05-26T21:24:30.118Z,94.40
2018-05-26T21:26:58.367Z,94.80
2018-05-26T21:29:25.890Z,94.80
2018-05-26T21:31:53.375Z,95.00
2018-05-26T21:34:21.080Z,95.10
2018-05-26T21:36:48.572Z,95.40
2018-05-26T21:39:16.058Z,95.60
2018-05-26T21:41:43.560Z,95.80
2018-05-26T21:44:11.030Z,96.20
2018-05-26T21:46:38.543Z,96.30
2018-05-26T21:49:06.037Z,96.50
2018-05-26T21:51:33.926Z,96.80
2018-05-26T21:54:01.735Z,97.30
2018-05-26T21:56:29.246Z,97.40
2018-05-26T21:58:56.733Z,98.30
2018-05-26T22:01:24.298Z,98.40
2018-05-26T22:03:51.788Z,98.90
2018-05-26T22:06:20.097Z,99.80
2018-05-26T22:08:47.595Z,99.80
2018-05-26T22:11:15.110Z,99.90
2018-05-26T22:13:42.628Z,99.90
2018-05-26T22:16:10.090Z,99.90
2018-05-26T22:18:37.611Z,99.90
2018-05-26T22:21:05.119Z,99.90
2018-05-26T22:23:33.385Z,99.90
2018-05-26T22:26:02.736Z,99.90
2018-05-26T22:28:30.244Z,99.90
2018-05-26T22:30:58.466Z,99.90
2018-05-26T22:33:25.998Z,99.90
2018-05-26T22:35:53.508Z,99.90
2018-05-26T22:38:21.024Z,99.90
2018-05-26T22:40:48.490Z,99.90
2018-05-26T22:43:15.989Z,99.90
2018-05-26T22:45:43.510Z,99.90
2018-05-26T22:48:11.021Z,99.90
2018-05-26T22:50:38.549Z,99.90
2018-05-26T22:53:06.027Z,99.90
2018-05-26T22:55:33.546Z,99.90
2018-05-26T22:58:01.044Z,99.90
2018-05-26T23:00:28.562Z,99.90
2018-05-26T23:02:56.049Z,99.90
2018-05-26T23:05:23.560Z,99.90
2018-05-26T23:07:51.072Z,99.90
2018-05-26T23:10:18.566Z,99.90
2018-05-26T23:12:46.038Z,99.90
2018-05-26T23:15:13.542Z,99.90
2018-05-26T23:17:41.028Z,99.90
2018-05-26T23:20:09.313Z,99.90
2018-05-26T23:22:36.825Z,99.90
2018-05-26T23:25:04.362Z,99.90
2018-05-26T23:27:31.848Z,99.90
2018-05-26T23:29:59.377Z,99.90
2018-05-26T23:32:26.879Z,99.90
2018-05-26T23:34:54.400Z,99.90
2018-05-26T23:37:21.879Z,99.90
2018-05-26T23:39:49.382Z,99.90
2018-05-26T23:42:17.645Z,99.90
2018-05-26T23:44:45.873Z,99.90
2018-05-26T23:47:13.363Z,99.90
2018-05-26T23:49:40.847Z,99.90
2018-05-26T23:52:09.110Z,99.90
2018-05-26T23:54:37.375Z,99.90
2018-05-26T23:57:04.917Z,99.90
2018-05-26T23:59:32.400Z,99.90
